sensor_id;sensor_type;location;lat;lon;timestamp;temperature;humidity
36654;DHT22;22650;49.350;20.898;2023-03-01T00:01:43;-4.10;99.90
36654;DHT22;22650;49.350;20.898;2023-03-01T00:04:17;-4.10;99.90
36654;DHT22;22650;49.350;20.898;2023-03-01T00:06:51;-4.10;99.90
36654;DHT22;22650;49.350;20.898;2023-03-01T00:09:26;-4.10;99.90
36654;DHT22;22650;49.350;20.898;2023-03-01T00:11:59;-4.10;99.90
36654;DHT22;22650;49.350;20.898;2023-03-01T00:14:33;-4.10;99.90
36654;DHT22;22650;49.350;20.898;2023-03-01T00:17:06;-4.10;99.90
36654;DHT22;22650;49.350;20.898;2023-03-01T00:19:40;-4.20;99.90
36654;DHT22;22650;49.350;20.898;2023-03-01T00:22:13;-4.20;99.90
36654;DHT22;22650;49.350;20.898;2023-03-01T00:24:48;-4.20;99.90
36654;DHT22;22650;49.350;20.898;2023-03-01T00:27:22;-4.30;99.90
36654;DHT22;22650;49.350;20.898;2023-03-01T00:29:55;-4.30;99.90
36654;DHT22;22650;49.350;20.898;2023-03-01T00:32:30;-4.30;99.90
36654;DHT22;22650;49.350;20.898;2023-03-01T00:35:04;-4.30;99.90
36654;DHT22;22650;49.350;20.898;2023-03-01T00:37:37;-4.30;99.90
36654;DHT22;22650;49.350;20.898;2023-03-01T00:40:14;-4.40;99.90
36654;DHT22;22650;49.350;20.898;2023-03-01T00:42:48;-4.40;99.90
36654;DHT22;22650;49.350;20.898;2023-03-01T00:45:22;-4.40;99.90
36654;DHT22;22650;49.350;20.898;2023-03-01T00:47:55;-4.40;99.90
36654;DHT22;22650;49.350;20.898;2023-03-01T00:50:29;-4.50;99.90
36654;DHT22;22650;49.350;20.898;2023-03-01T00:53:02;-4.50;99.90
36654;DHT22;22650;49.350;20.898;2023-03-01T00:55:38;-4.50;99.90
36654;DHT22;22650;49.350;20.898;2023-03-01T00:58:12;-4.50;99.90
36654;DHT22;22650;49.350;20.898;2023-03-01T01:00:45;-4.50;99.90
36654;DHT22;22650;49.350;20.898;2023-03-01T01:03:20;-4.50;99.90
36654;DHT22;22650;49.350;20.898;2023-03-01T01:05:53;-4.50;99.90
36654;DHT22;22650;49.350;20.898;2023-03-01T01:08:27;-4.50;99.90
36654;DHT22;22650;49.350;20.898;2023-03-01T01:11:02;-4.60;99.90
36654;DHT22;22650;49.350;20.898;2023-03-01T01:13:36;-4.60;99.90
36654;DHT22;22650;49.350;20.898;2023-03-01T01:16:09;-4.60;99.90
36654;DHT22;22650;49.350;20.898;2023-03-01T01:18:43;-4.60;99.90
36654;DHT22;22650;49.350;20.898;2023-03-01T01:21:19;-4.70;99.90
36654;DHT22;22650;49.350;20.898;2023-03-01T01:23:53;-4.70;99.90
36654;DHT22;22650;49.350;20.898;2023-03-01T01:26:30;-4.70;99.90
36654;DHT22;22650;49.350;20.898;2023-03-01T01:29:05;-4.70;99.90
36654;DHT22;22650;49.350;20.898;2023-03-01T01:31:40;-4.70;99.90
36654;DHT22;22650;49.350;20.898;2023-03-01T01:34:16;-4.70;99.90
36654;DHT22;22650;49.350;20.898;2023-03-01T01:36:50;-4.70;99.90
36654;DHT22;22650;49.350;20.898;2023-03-01T01:39:25;-4.80;99.90
36654;DHT22;22650;49.350;20.898;2023-03-01T01:42:01;-4.80;99.90
36654;DHT22;22650;49.350;20.898;2023-03-01T01:44:35;-4.80;99.90
36654;DHT22;22650;49.350;20.898;2023-03-01T01:47:14;-4.80;99.90
36654;DHT22;22650;49.350;20.898;2023-03-01T01:49:50;-4.80;99.90
36654;DHT22;22650;49.350;20.898;2023-03-01T01:52:26;-4.80;99.90
36654;DHT22;22650;49.350;20.898;2023-03-01T01:55:03;-4.90;99.90
36654;DHT22;22650;49.350;20.898;2023-03-01T01:57:43;-4.90;99.90
36654;DHT22;22650;49.350;20.898;2023-03-01T02:00:20;-4.90;99.90
36654;DHT22;22650;49.350;20.898;2023-03-01T02:02:57;-4.90;99.90
36654;DHT22;22650;49.350;20.898;2023-03-01T02:05:36;-4.90;99.90
36654;DHT22;22650;49.350;20.898;2023-03-01T02:08:13;-5.00;99.90
36654;DHT22;22650;49.350;20.898;2023-03-01T02:10:49;-5.00;99.90
36654;DHT22;22650;49.350;20.898;2023-03-01T02:13:25;-5.00;99.90
36654;DHT22;22650;49.350;20.898;2023-03-01T02:16:01;-5.00;99.90
36654;DHT22;22650;49.350;20.898;2023-03-01T02:18:35;-5.10;99.90
36654;DHT22;22650;49.350;20.898;2023-03-01T02:24:18;-5.00;99.90
36654;DHT22;22650;49.350;20.898;2023-03-01T02:26:56;-5.10;99.90
36654;DHT22;22650;49.350;20.898;2023-03-01T02:29:32;-5.10;99.90
36654;DHT22;22650;49.350;20.898;2023-03-01T02:32:06;-5.10;99.90
36654;DHT22;22650;49.350;20.898;2023-03-01T02:34:39;-5.10;99.90
36654;DHT22;22650;49.350;20.898;2023-03-01T02:37:15;-5.10;99.90
36654;DHT22;22650;49.350;20.898;2023-03-01T02:39:57;-5.20;99.90
36654;DHT22;22650;49.350;20.898;2023-03-01T02:42:35;-5.10;99.90
36654;DHT22;22650;49.350;20.898;2023-03-01T02:45:11;-5.10;99.90
36654;DHT22;22650;49.350;20.898;2023-03-01T02:47:45;-5.20;99.90
36654;DHT22;22650;49.350;20.898;2023-03-01T02:50:30;-5.20;99.90
36654;DHT22;22650;49.350;20.898;2023-03-01T02:53:11;-5.20;99.90
36654;DHT22;22650;49.350;20.898;2023-03-01T02:55:46;-5.20;99.90
36654;DHT22;22650;49.350;20.898;2023-03-01T02:58:20;-5.20;99.90
36654;DHT22;22650;49.350;20.898;2023-03-01T03:00:56;-5.30;99.90
36654;DHT22;22650;49.350;20.898;2023-03-01T03:03:33;-5.30;99.90
36654;DHT22;22650;49.350;20.898;2023-03-01T03:06:06;-5.30;99.90
36654;DHT22;22650;49.350;20.898;2023-03-01T03:08:40;-5.30;99.90
36654;DHT22;22650;49.350;20.898;2023-03-01T03:11:14;-5.30;99.90
36654;DHT22;22650;49.350;20.898;2023-03-01T03:13:47;-5.30;99.90
36654;DHT22;22650;49.350;20.898;2023-03-01T03:16:23;-5.30;99.90
36654;DHT22;22650;49.350;20.898;2023-03-01T03:18:57;-5.30;99.90
36654;DHT22;22650;49.350;20.898;2023-03-01T03:21:37;-5.40;99.90
36654;DHT22;22650;49.350;20.898;2023-03-01T03:24:11;-5.40;99.90
36654;DHT22;22650;49.350;20.898;2023-03-01T03:26:44;-5.40;99.90
36654;DHT22;22650;49.350;20.898;2023-03-01T03:29:18;-5.40;99.90
36654;DHT22;22650;49.350;20.898;2023-03-01T03:31:52;-5.40;99.90
36654;DHT22;22650;49.350;20.898;2023-03-01T03:34:26;-5.40;99.90
36654;DHT22;22650;49.350;20.898;2023-03-01T03:36:59;-5.40;99.90
36654;DHT22;22650;49.350;20.898;2023-03-01T03:39:33;-5.50;99.90
36654;DHT22;22650;49.350;20.898;2023-03-01T03:42:06;-5.40;99.90
36654;DHT22;22650;49.350;20.898;2023-03-01T03:44:42;-5.50;99.90
36654;DHT22;22650;49.350;20.898;2023-03-01T03:47:17;-5.50;99.90
36654;DHT22;22650;49.350;20.898;2023-03-01T03:49:50;-5.50;99.90
36654;DHT22;22650;49.350;20.898;2023-03-01T03:52:24;-5.50;99.90
36654;DHT22;22650;49.350;20.898;2023-03-01T03:54:57;-5.50;99.90
36654;DHT22;22650;49.350;20.898;2023-03-01T03:57:31;-5.50;99.90
36654;DHT22;22650;49.350;20.898;2023-03-01T04:00:06;-5.60;99.90
36654;DHT22;22650;49.350;20.898;2023-03-01T04:02:48;-5.60;99.90
36654;DHT22;22650;49.350;20.898;2023-03-01T04:05:22;-5.60;99.90
36654;DHT22;22650;49.350;20.898;2023-03-01T04:07:56;-5.60;99.90
36654;DHT22;22650;49.350;20.898;2023-03-01T04:10:41;-5.60;99.90
36654;DHT22;22650;49.350;20.898;2023-03-01T04:13:17;-5.60;99.90
36654;DHT22;22650;49.350;20.898;2023-03-01T04:15:52;-5.60;99.90
36654;DHT22;22650;49.350;20.898;2023-03-01T04:18:27;-5.60;99.90
36654;DHT22;22650;49.350;20.898;2023-03-01T04:21:01;-5.60;99.90
36654;DHT22;22650;49.350;20.898;2023-03-01T04:23:34;-5.70;99.90
36654;DHT22;22650;49.350;20.898;2023-03-01T04:26:08;-5.70;99.90
36654;DHT22;22650;49.350;20.898;2023-03-01T04:28:42;-5.80;99.90
36654;DHT22;22650;49.350;20.898;2023-03-01T04:31:18;-5.80;99.90
36654;DHT22;22650;49.350;20.898;2023-03-01T04:33:55;-5.80;99.90
36654;DHT22;22650;49.350;20.898;2023-03-01T04:36:29;-5.80;99.90
36654;DHT22;22650;49.350;20.898;2023-03-01T04:39:03;-5.80;99.90
36654;DHT22;22650;49.350;20.898;2023-03-01T04:41:44;-5.80;99.90
36654;DHT22;22650;49.350;20.898;2023-03-01T04:44:17;-5.80;99.90
36654;DHT22;22650;49.350;20.898;2023-03-01T04:46:53;-5.80;99.90
36654;DHT22;22650;49.350;20.898;2023-03-01T04:49:28;-5.80;99.90
36654;DHT22;22650;49.350;20.898;2023-03-01T04:52:01;-5.80;99.90
36654;DHT22;22650;49.350;20.898;2023-03-01T04:54:35;-5.80;99.90
36654;DHT22;22650;49.350;20.898;2023-03-01T04:57:09;-5.80;99.90
36654;DHT22;22650;49.350;20.898;2023-03-01T04:59:42;-5.80;99.90
36654;DHT22;22650;49.350;20.898;2023-03-01T05:02:16;-5.80;99.90
36654;DHT22;22650;49.350;20.898;2023-03-01T05:04:50;-5.80;99.90
36654;DHT22;22650;49.350;20.898;2023-03-01T05:07:24;-5.90;99.90
36654;DHT22;22650;49.350;20.898;2023-03-01T05:09:58;-5.90;99.90
36654;DHT22;22650;49.350;20.898;2023-03-01T05:12:31;-5.90;99.90
36654;DHT22;22650;49.350;20.898;2023-03-01T05:15:06;-5.90;99.90
36654;DHT22;22650;49.350;20.898;2023-03-01T05:17:40;-5.90;99.90
36654;DHT22;22650;49.350;20.898;2023-03-01T05:20:16;-5.90;99.90
36654;DHT22;22650;49.350;20.898;2023-03-01T05:22:50;-5.90;99.90
36654;DHT22;22650;49.350;20.898;2023-03-01T05:25:24;-5.90;99.90
36654;DHT22;22650;49.350;20.898;2023-03-01T05:27:58;-5.90;99.90
36654;DHT22;22650;49.350;20.898;2023-03-01T05:30:35;-5.90;99.90
36654;DHT22;22650;49.350;20.898;2023-03-01T05:33:11;-5.90;99.90
36654;DHT22;22650;49.350;20.898;2023-03-01T05:35:48;-5.90;99.90
36654;DHT22;22650;49.350;20.898;2023-03-01T05:38:22;-5.90;99.90
36654;DHT22;22650;49.350;20.898;2023-03-01T05:40:55;-5.80;99.90
36654;DHT22;22650;49.350;20.898;2023-03-01T05:43:30;-5.80;99.90
36654;DHT22;22650;49.350;20.898;2023-03-01T05:46:06;-5.90;99.90
36654;DHT22;22650;49.350;20.898;2023-03-01T05:48:39;-5.80;99.90
36654;DHT22;22650;49.350;20.898;2023-03-01T05:51:14;-5.90;99.90
36654;DHT22;22650;49.350;20.898;2023-03-01T05:53:47;-5.90;99.90
36654;DHT22;22650;49.350;20.898;2023-03-01T05:56:21;-5.90;99.90
36654;DHT22;22650;49.350;20.898;2023-03-01T05:58:55;-5.80;99.90
36654;DHT22;22650;49.350;20.898;2023-03-01T06:01:28;-5.80;99.90
36654;DHT22;22650;49.350;20.898;2023-03-01T06:04:02;-5.80;99.90
36654;DHT22;22650;49.350;20.898;2023-03-01T06:06:37;-5.80;99.90
36654;DHT22;22650;49.350;20.898;2023-03-01T06:09:11;-5.80;99.90
36654;DHT22;22650;49.350;20.898;2023-03-01T06:11:45;-5.70;99.90
36654;DHT22;22650;49.350;20.898;2023-03-01T06:14:18;-5.70;99.90
36654;DHT22;22650;49.350;20.898;2023-03-01T06:16:52;-5.70;99.90
36654;DHT22;22650;49.350;20.898;2023-03-01T06:19:26;-5.70;99.90
36654;DHT22;22650;49.350;20.898;2023-03-01T06:22:01;-5.70;99.90
36654;DHT22;22650;49.350;20.898;2023-03-01T06:24:34;-5.70;99.90
36654;DHT22;22650;49.350;20.898;2023-03-01T06:27:08;-5.60;99.90
36654;DHT22;22650;49.350;20.898;2023-03-01T06:29:42;-5.60;99.90
36654;DHT22;22650;49.350;20.898;2023-03-01T06:32:15;-5.60;99.90
36654;DHT22;22650;49.350;20.898;2023-03-01T06:34:49;-5.50;99.90
36654;DHT22;22650;49.350;20.898;2023-03-01T06:37:24;-5.50;99.90
36654;DHT22;22650;49.350;20.898;2023-03-01T06:39:58;-5.40;99.90
36654;DHT22;22650;49.350;20.898;2023-03-01T06:42:31;-5.40;99.90
36654;DHT22;22650;49.350;20.898;2023-03-01T06:45:06;-5.30;99.90
36654;DHT22;22650;49.350;20.898;2023-03-01T06:47:40;-5.30;99.90
36654;DHT22;22650;49.350;20.898;2023-03-01T06:50:14;-5.20;99.90
36654;DHT22;22650;49.350;20.898;2023-03-01T06:52:55;-5.20;99.90
36654;DHT22;22650;49.350;20.898;2023-03-01T06:55:29;-5.10;99.90
36654;DHT22;22650;49.350;20.898;2023-03-01T06:58:03;-5.10;99.90
36654;DHT22;22650;49.350;20.898;2023-03-01T07:00:37;-5.00;99.90
36654;DHT22;22650;49.350;20.898;2023-03-01T07:03:13;-5.00;99.90
36654;DHT22;22650;49.350;20.898;2023-03-01T07:05:48;-4.90;99.90
36654;DHT22;22650;49.350;20.898;2023-03-01T07:08:25;-4.90;99.90
36654;DHT22;22650;49.350;20.898;2023-03-01T07:10:59;-4.80;99.90
36654;DHT22;22650;49.350;20.898;2023-03-01T07:13:33;-4.80;99.90
36654;DHT22;22650;49.350;20.898;2023-03-01T07:16:07;-4.70;99.90
36654;DHT22;22650;49.350;20.898;2023-03-01T07:18:41;-4.70;99.90
36654;DHT22;22650;49.350;20.898;2023-03-01T07:21:15;-4.60;99.90
36654;DHT22;22650;49.350;20.898;2023-03-01T07:23:51;-4.60;99.90
36654;DHT22;22650;49.350;20.898;2023-03-01T07:26:24;-4.50;99.90
36654;DHT22;22650;49.350;20.898;2023-03-01T07:28:59;-4.40;99.90
36654;DHT22;22650;49.350;20.898;2023-03-01T07:31:34;-4.30;99.90
36654;DHT22;22650;49.350;20.898;2023-03-01T07:34:07;-4.20;99.90
36654;DHT22;22650;49.350;20.898;2023-03-01T07:36:41;-4.10;99.90
36654;DHT22;22650;49.350;20.898;2023-03-01T07:39:16;-4.00;99.90
36654;DHT22;22650;49.350;20.898;2023-03-01T07:41:51;-3.90;99.90
36654;DHT22;22650;49.350;20.898;2023-03-01T07:44:26;-3.80;99.90
36654;DHT22;22650;49.350;20.898;2023-03-01T07:47:00;-3.70;99.90
36654;DHT22;22650;49.350;20.898;2023-03-01T07:49:34;-3.50;99.90
36654;DHT22;22650;49.350;20.898;2023-03-01T07:52:10;-3.40;99.90
36654;DHT22;22650;49.350;20.898;2023-03-01T07:54:45;-3.20;99.90
36654;DHT22;22650;49.350;20.898;2023-03-01T07:57:19;-3.00;99.90
36654;DHT22;22650;49.350;20.898;2023-03-01T07:59:52;-2.70;99.90
36654;DHT22;22650;49.350;20.898;2023-03-01T08:02:26;-2.50;99.90
36654;DHT22;22650;49.350;20.898;2023-03-01T08:04:59;-2.20;99.90
36654;DHT22;22650;49.350;20.898;2023-03-01T08:07:33;-1.90;99.90
36654;DHT22;22650;49.350;20.898;2023-03-01T08:10:09;-1.60;99.90
36654;DHT22;22650;49.350;20.898;2023-03-01T08:12:43;-1.30;99.90
36654;DHT22;22650;49.350;20.898;2023-03-01T08:15:16;-0.90;99.90
36654;DHT22;22650;49.350;20.898;2023-03-01T08:17:50;-0.60;99.90
36654;DHT22;22650;49.350;20.898;2023-03-01T08:20:24;-0.20;99.90
36654;DHT22;22650;49.350;20.898;2023-03-01T08:22:58;0.10;99.90
36654;DHT22;22650;49.350;20.898;2023-03-01T08:25:33;0.50;99.90
36654;DHT22;22650;49.350;20.898;2023-03-01T08:28:06;0.80;99.90
36654;DHT22;22650;49.350;20.898;2023-03-01T08:30:40;1.10;99.90
36654;DHT22;22650;49.350;20.898;2023-03-01T08:33:13;1.40;99.90
36654;DHT22;22650;49.350;20.898;2023-03-01T08:35:47;1.60;99.90
36654;DHT22;22650;49.350;20.898;2023-03-01T08:38:21;2.00;99.90
36654;DHT22;22650;49.350;20.898;2023-03-01T08:40:59;2.30;99.90
36654;DHT22;22650;49.350;20.898;2023-03-01T08:43:33;2.70;99.90
36654;DHT22;22650;49.350;20.898;2023-03-01T08:46:06;3.10;99.90
36654;DHT22;22650;49.350;20.898;2023-03-01T08:48:40;3.50;99.90
36654;DHT22;22650;49.350;20.898;2023-03-01T08:51:17;3.80;99.90
36654;DHT22;22650;49.350;20.898;2023-03-01T08:53:51;4.10;99.90
36654;DHT22;22650;49.350;20.898;2023-03-01T08:56:26;4.40;99.90
36654;DHT22;22650;49.350;20.898;2023-03-01T08:59:00;4.70;99.90
36654;DHT22;22650;49.350;20.898;2023-03-01T09:01:33;5.10;99.90
36654;DHT22;22650;49.350;20.898;2023-03-01T09:04:08;5.40;99.90
36654;DHT22;22650;49.350;20.898;2023-03-01T09:06:42;5.60;99.90
36654;DHT22;22650;49.350;20.898;2023-03-01T09:09:16;5.80;99.90
36654;DHT22;22650;49.350;20.898;2023-03-01T09:11:52;6.10;99.90
36654;DHT22;22650;49.350;20.898;2023-03-01T09:14:25;6.40;99.90
36654;DHT22;22650;49.350;20.898;2023-03-01T09:16:59;6.70;99.90
36654;DHT22;22650;49.350;20.898;2023-03-01T09:19:35;7.00;99.20
36654;DHT22;22650;49.350;20.898;2023-03-01T09:22:08;7.30;98.60
36654;DHT22;22650;49.350;20.898;2023-03-01T09:24:42;7.50;95.50
36654;DHT22;22650;49.350;20.898;2023-03-01T09:27:17;7.70;93.20
36654;DHT22;22650;49.350;20.898;2023-03-01T09:29:51;7.90;86.90
36654;DHT22;22650;49.350;20.898;2023-03-01T09:32:24;8.10;86.50
36654;DHT22;22650;49.350;20.898;2023-03-01T09:34:58;8.20;85.40
36654;DHT22;22650;49.350;20.898;2023-03-01T09:37:37;8.50;88.30
36654;DHT22;22650;49.350;20.898;2023-03-01T09:40:15;8.70;87.20
36654;DHT22;22650;49.350;20.898;2023-03-01T09:42:54;8.80;82.00
36654;DHT22;22650;49.350;20.898;2023-03-01T09:45:33;8.90;82.40
36654;DHT22;22650;49.350;20.898;2023-03-01T09:48:15;9.00;81.10
36654;DHT22;22650;49.350;20.898;2023-03-01T09:50:49;9.20;80.80
36654;DHT22;22650;49.350;20.898;2023-03-01T09:53:30;9.30;82.10
36654;DHT22;22650;49.350;20.898;2023-03-01T09:56:12;9.50;77.90
36654;DHT22;22650;49.350;20.898;2023-03-01T09:58:52;9.60;78.30
36654;DHT22;22650;49.350;20.898;2023-03-01T10:01:31;9.80;78.60
36654;DHT22;22650;49.350;20.898;2023-03-01T10:04:27;10.00;78.10
36654;DHT22;22650;49.350;20.898;2023-03-01T10:07:27;10.20;73.90
36654;DHT22;22650;49.350;20.898;2023-03-01T10:10:05;10.40;71.70
36654;DHT22;22650;49.350;20.898;2023-03-01T10:12:40;10.50;71.50
36654;DHT22;22650;49.350;20.898;2023-03-01T10:15:18;10.60;73.00
36654;DHT22;22650;49.350;20.898;2023-03-01T10:17:57;10.70;72.30
36654;DHT22;22650;49.350;20.898;2023-03-01T10:20:42;10.80;69.60
36654;DHT22;22650;49.350;20.898;2023-03-01T10:23:17;10.70;69.80
36654;DHT22;22650;49.350;20.898;2023-03-01T10:26:15;10.70;68.20
36654;DHT22;22650;49.350;20.898;2023-03-01T10:28:58;10.90;67.70
36654;DHT22;22650;49.350;20.898;2023-03-01T10:31:40;11.00;68.00
36654;DHT22;22650;49.350;20.898;2023-03-01T10:34:17;11.10;67.00
36654;DHT22;22650;49.350;20.898;2023-03-01T10:36:52;11.20;66.40
36654;DHT22;22650;49.350;20.898;2023-03-01T10:39:28;11.30;66.80
36654;DHT22;22650;49.350;20.898;2023-03-01T10:42:03;11.30;65.20
36654;DHT22;22650;49.350;20.898;2023-03-01T10:44:41;11.30;64.90
36654;DHT22;22650;49.350;20.898;2023-03-01T10:47:22;11.20;62.40
36654;DHT22;22650;49.350;20.898;2023-03-01T10:49:59;11.20;63.10
36654;DHT22;22650;49.350;20.898;2023-03-01T10:52:35;11.30;64.40
36654;DHT22;22650;49.350;20.898;2023-03-01T10:55:24;11.40;64.10
36654;DHT22;22650;49.350;20.898;2023-03-01T10:58:17;11.50;62.90
36654;DHT22;22650;49.350;20.898;2023-03-01T11:00:53;11.70;57.50
36654;DHT22;22650;49.350;20.898;2023-03-01T11:03:31;11.60;57.60
36654;DHT22;22650;49.350;20.898;2023-03-01T11:06:22;11.80;54.70
36654;DHT22;22650;49.350;20.898;2023-03-01T11:08:55;11.90;58.20
36654;DHT22;22650;49.350;20.898;2023-03-01T11:11:31;12.10;55.40
36654;DHT22;22650;49.350;20.898;2023-03-01T11:14:12;12.30;54.00
36654;DHT22;22650;49.350;20.898;2023-03-01T11:16:59;12.40;51.80
36654;DHT22;22650;49.350;20.898;2023-03-01T11:19:35;12.40;52.00
36654;DHT22;22650;49.350;20.898;2023-03-01T11:22:13;12.50;52.40
36654;DHT22;22650;49.350;20.898;2023-03-01T11:24:49;12.60;50.00
36654;DHT22;22650;49.350;20.898;2023-03-01T11:27:43;12.60;50.10
36654;DHT22;22650;49.350;20.898;2023-03-01T11:30:21;12.70;49.50
36654;DHT22;22650;49.350;20.898;2023-03-01T11:33:08;12.80;48.50
36654;DHT22;22650;49.350;20.898;2023-03-01T11:35:49;12.90;46.80
36654;DHT22;22650;49.350;20.898;2023-03-01T11:38:29;13.00;47.70
36654;DHT22;22650;49.350;20.898;2023-03-01T11:41:07;13.20;47.90
36654;DHT22;22650;49.350;20.898;2023-03-01T11:43:49;13.40;48.00
36654;DHT22;22650;49.350;20.898;2023-03-01T11:46:44;13.70;47.20
36654;DHT22;22650;49.350;20.898;2023-03-01T11:52:33;13.70;45.60
36654;DHT22;22650;49.350;20.898;2023-03-01T11:55:20;13.50;45.20
36654;DHT22;22650;49.350;20.898;2023-03-01T11:58:20;13.60;45.40
36654;DHT22;22650;49.350;20.898;2023-03-01T12:01:07;13.90;44.20
36654;DHT22;22650;49.350;20.898;2023-03-01T12:03:54;14.10;46.40
36654;DHT22;22650;49.350;20.898;2023-03-01T12:06:44;14.10;45.60
36654;DHT22;22650;49.350;20.898;2023-03-01T12:09:32;14.10;44.60
36654;DHT22;22650;49.350;20.898;2023-03-01T12:12:33;13.60;42.70
36654;DHT22;22650;49.350;20.898;2023-03-01T12:18:42;13.40;47.50
36654;DHT22;22650;49.350;20.898;2023-03-01T12:21:27;13.50;45.30
36654;DHT22;22650;49.350;20.898;2023-03-01T12:24:21;13.50;43.90
36654;DHT22;22650;49.350;20.898;2023-03-01T12:27:16;13.60;46.70
36654;DHT22;22650;49.350;20.898;2023-03-01T12:29:59;13.60;46.30
36654;DHT22;22650;49.350;20.898;2023-03-01T12:32:44;13.60;48.60
36654;DHT22;22650;49.350;20.898;2023-03-01T12:35:41;13.70;48.00
36654;DHT22;22650;49.350;20.898;2023-03-01T12:38:27;13.60;47.30
36654;DHT22;22650;49.350;20.898;2023-03-01T12:41:21;13.70;47.60
36654;DHT22;22650;49.350;20.898;2023-03-01T12:44:15;13.70;47.60
36654;DHT22;22650;49.350;20.898;2023-03-01T12:47:05;13.70;47.80
36654;DHT22;22650;49.350;20.898;2023-03-01T12:49:43;13.50;48.40
36654;DHT22;22650;49.350;20.898;2023-03-01T12:52:22;13.70;50.30
36654;DHT22;22650;49.350;20.898;2023-03-01T12:55:00;13.70;47.40
36654;DHT22;22650;49.350;20.898;2023-03-01T12:57:37;13.50;47.60
36654;DHT22;22650;49.350;20.898;2023-03-01T13:00:26;13.30;46.80
36654;DHT22;22650;49.350;20.898;2023-03-01T13:03:09;13.20;48.20
36654;DHT22;22650;49.350;20.898;2023-03-01T13:05:56;13.10;46.20
36654;DHT22;22650;49.350;20.898;2023-03-01T13:08:41;13.10;47.50
36654;DHT22;22650;49.350;20.898;2023-03-01T13:11:19;13.20;47.50
36654;DHT22;22650;49.350;20.898;2023-03-01T13:14:34;13.20;48.80
36654;DHT22;22650;49.350;20.898;2023-03-01T13:17:31;13.00;46.60
36654;DHT22;22650;49.350;20.898;2023-03-01T13:20:15;13.00;47.60
36654;DHT22;22650;49.350;20.898;2023-03-01T13:23:01;13.00;47.60
36654;DHT22;22650;49.350;20.898;2023-03-01T13:25:35;13.00;48.10
36654;DHT22;22650;49.350;20.898;2023-03-01T13:28:46;13.20;49.30
36654;DHT22;22650;49.350;20.898;2023-03-01T13:34:51;12.80;46.00
36654;DHT22;22650;49.350;20.898;2023-03-01T13:37:34;12.50;48.20
36654;DHT22;22650;49.350;20.898;2023-03-01T13:43:31;12.50;50.20
36654;DHT22;22650;49.350;20.898;2023-03-01T13:46:11;12.50;49.20
36654;DHT22;22650;49.350;20.898;2023-03-01T13:48:49;12.30;46.40
36654;DHT22;22650;49.350;20.898;2023-03-01T13:51:26;12.10;47.50
36654;DHT22;22650;49.350;20.898;2023-03-01T13:54:00;12.00;49.90
36654;DHT22;22650;49.350;20.898;2023-03-01T13:56:37;12.10;48.10
36654;DHT22;22650;49.350;20.898;2023-03-01T13:59:14;12.00;46.20
36654;DHT22;22650;49.350;20.898;2023-03-01T14:01:52;11.90;45.70
36654;DHT22;22650;49.350;20.898;2023-03-01T14:04:28;11.80;46.10
36654;DHT22;22650;49.350;20.898;2023-03-01T14:07:12;11.70;45.10
36654;DHT22;22650;49.350;20.898;2023-03-01T14:09:46;11.40;44.80
36654;DHT22;22650;49.350;20.898;2023-03-01T14:12:30;11.10;44.30
36654;DHT22;22650;49.350;20.898;2023-03-01T14:15:15;10.90;43.80
36654;DHT22;22650;49.350;20.898;2023-03-01T14:17:58;10.80;43.80
36654;DHT22;22650;49.350;20.898;2023-03-01T14:20:38;10.70;46.10
36654;DHT22;22650;49.350;20.898;2023-03-01T14:23:17;10.70;46.40
36654;DHT22;22650;49.350;20.898;2023-03-01T14:25:53;10.60;46.30
36654;DHT22;22650;49.350;20.898;2023-03-01T14:28:29;10.50;48.00
36654;DHT22;22650;49.350;20.898;2023-03-01T14:31:34;10.30;47.40
36654;DHT22;22650;49.350;20.898;2023-03-01T14:34:24;10.20;46.40
36654;DHT22;22650;49.350;20.898;2023-03-01T14:37:10;10.00;46.30
36654;DHT22;22650;49.350;20.898;2023-03-01T14:39:45;9.90;48.60
36654;DHT22;22650;49.350;20.898;2023-03-01T14:42:20;9.80;47.10
36654;DHT22;22650;49.350;20.898;2023-03-01T14:44:56;9.70;48.80
36654;DHT22;22650;49.350;20.898;2023-03-01T14:47:31;9.70;50.50
36654;DHT22;22650;49.350;20.898;2023-03-01T14:50:09;9.70;49.70
36654;DHT22;22650;49.350;20.898;2023-03-01T14:52:50;9.70;50.10
36654;DHT22;22650;49.350;20.898;2023-03-01T14:55:33;9.50;50.20
36654;DHT22;22650;49.350;20.898;2023-03-01T14:58:12;9.20;49.80
36654;DHT22;22650;49.350;20.898;2023-03-01T15:00:49;9.10;50.80
36654;DHT22;22650;49.350;20.898;2023-03-01T15:03:30;9.00;51.00
36654;DHT22;22650;49.350;20.898;2023-03-01T15:06:06;8.80;50.90
36654;DHT22;22650;49.350;20.898;2023-03-01T15:08:44;8.60;51.40
36654;DHT22;22650;49.350;20.898;2023-03-01T15:11:22;8.50;52.30
36654;DHT22;22650;49.350;20.898;2023-03-01T15:13:57;8.50;52.30
36654;DHT22;22650;49.350;20.898;2023-03-01T15:16:33;8.30;52.30
36654;DHT22;22650;49.350;20.898;2023-03-01T15:19:07;8.20;52.80
36654;DHT22;22650;49.350;20.898;2023-03-01T15:21:44;8.10;53.90
36654;DHT22;22650;49.350;20.898;2023-03-01T15:24:23;8.10;54.80
36654;DHT22;22650;49.350;20.898;2023-03-01T15:27:00;7.90;54.30
36654;DHT22;22650;49.350;20.898;2023-03-01T15:29:38;7.80;55.60
36654;DHT22;22650;49.350;20.898;2023-03-01T15:32:26;7.70;55.90
36654;DHT22;22650;49.350;20.898;2023-03-01T15:35:38;7.60;55.60
36654;DHT22;22650;49.350;20.898;2023-03-01T15:38:34;7.40;56.00
36654;DHT22;22650;49.350;20.898;2023-03-01T15:41:24;7.30;56.30
36654;DHT22;22650;49.350;20.898;2023-03-01T15:44:00;7.20;57.00
36654;DHT22;22650;49.350;20.898;2023-03-01T15:46:35;7.10;57.50
36654;DHT22;22650;49.350;20.898;2023-03-01T15:49:26;7.00;57.80
36654;DHT22;22650;49.350;20.898;2023-03-01T15:52:00;6.90;58.40
36654;DHT22;22650;49.350;20.898;2023-03-01T15:54:34;6.80;58.50
36654;DHT22;22650;49.350;20.898;2023-03-01T15:57:12;6.70;58.90
36654;DHT22;22650;49.350;20.898;2023-03-01T15:59:48;6.60;59.60
36654;DHT22;22650;49.350;20.898;2023-03-01T16:02:22;6.40;59.90
36654;DHT22;22650;49.350;20.898;2023-03-01T16:04:56;6.30;60.40
36654;DHT22;22650;49.350;20.898;2023-03-01T16:07:30;6.20;60.90
36654;DHT22;22650;49.350;20.898;2023-03-01T16:10:04;6.00;61.30
36654;DHT22;22650;49.350;20.898;2023-03-01T16:12:38;5.80;61.90
36654;DHT22;22650;49.350;20.898;2023-03-01T16:15:17;5.60;62.70
36654;DHT22;22650;49.350;20.898;2023-03-01T16:17:51;5.50;63.00
36654;DHT22;22650;49.350;20.898;2023-03-01T16:20:29;5.30;63.70
36654;DHT22;22650;49.350;20.898;2023-03-01T16:23:06;5.10;63.90
36654;DHT22;22650;49.350;20.898;2023-03-01T16:25:40;5.10;64.60
36654;DHT22;22650;49.350;20.898;2023-03-01T16:28:14;4.90;64.70
36654;DHT22;22650;49.350;20.898;2023-03-01T16:30:49;4.80;65.50
36654;DHT22;22650;49.350;20.898;2023-03-01T16:33:23;4.70;66.30
36654;DHT22;22650;49.350;20.898;2023-03-01T16:36:10;4.60;67.10
36654;DHT22;22650;49.350;20.898;2023-03-01T16:38:44;4.40;68.30
36654;DHT22;22650;49.350;20.898;2023-03-01T16:41:22;4.20;68.30